createdAt,value
2022-09-16T00:00:48.778Z,99.90
2022-09-16T00:03:16.413Z,99.90
2022-09-16T00:05:44.128Z,99.90
2022-09-16T00:08:10.943Z,99.90
2022-09-16T00:10:37.584Z,99.90
2022-09-16T00:13:04.406Z,99.90
2022-09-16T00:15:31.000Z,99.90
2022-09-16T00:17:57.607Z,99.90
2022-09-16T00:20:24.168Z,99.90
2022-09-16T00:22:50.753Z,99.90
2022-09-16T00:25:17.446Z,99.90
2022-09-16T00:27:44.069Z,99.90
2022-09-16T00:30:10.936Z,99.90
2022-09-16T00:32:37.546Z,99.90
2022-09-16T00:35:04.483Z,99.90
2022-09-16T00:37:32.961Z,99.90
2022-09-16T00:39:59.622Z,99.90
2022-09-16T00:42:26.222Z,99.90
2022-09-16T00:44:57.375Z,99.90
2022-09-16T00:47:31.484Z,99.90
2022-09-16T00:50:02.343Z,99.90
2022-09-16T00:52:28.944Z,99.90
2022-09-16T00:54:55.569Z,99.90
2022-09-16T00:57:22.159Z,99.90
2022-09-16T00:59:51.593Z,99.90
2022-09-16T01:02:19.055Z,99.90
2022-09-16T01:05:19.044Z,99.90
2022-09-16T01:07:47.416Z,99.90
2022-09-16T01:10:15.284Z,99.90
2022-09-16T01:12:43.064Z,99.90
2022-09-16T01:15:10.883Z,99.90
2022-09-16T01:18:02.089Z,99.90
2022-09-16T01:21:00.982Z,99.90
2022-09-16T01:23:30.378Z,99.90
2022-09-16T01:26:09.034Z,99.90
2022-09-16T01:29:30.295Z,99.90
2022-09-16T01:31:59.760Z,99.90
2022-09-16T01:35:10.596Z,99.90
2022-09-16T01:37:57.990Z,99.90
2022-09-16T01:41:02.003Z,99.90
2022-09-16T01:43:43.450Z,99.90
2022-09-16T01:46:16.179Z,99.90
2022-09-16T01:48:56.733Z,99.90
2022-09-16T01:51:40.801Z,99.90
2022-09-16T01:54:36.901Z,99.90
2022-09-16T01:57:18.804Z,99.90
2022-09-16T01:59:57.289Z,99.90
2022-09-16T02:02:43.889Z,99.90
2022-09-16T02:05:13.918Z,99.90
2022-09-16T02:07:42.040Z,99.90
2022-09-16T02:10:36.447Z,99.90
2022-09-16T02:13:08.158Z,99.90
2022-09-16T02:15:34.855Z,99.90
2022-09-16T02:18:04.446Z,99.90
2022-09-16T02:20:31.743Z,99.90
2022-09-16T02:23:15.890Z,99.90
2022-09-16T02:25:42.595Z,99.90
2022-09-16T02:28:13.137Z,99.90
2022-09-16T02:30:44.064Z,99.90
2022-09-16T02:33:10.646Z,99.90
2022-09-16T02:35:37.262Z,99.90
2022-09-16T02:38:18.390Z,99.90
2022-09-16T02:40:48.556Z,99.90
2022-09-16T02:43:15.262Z,99.90
2022-09-16T02:46:15.979Z,99.90
2022-09-16T02:48:45.577Z,99.90
2022-09-16T02:51:21.017Z,99.90
2022-09-16T02:53:56.495Z,99.90
2022-09-16T02:56:37.434Z,99.90
2022-09-16T02:59:05.743Z,99.90
2022-09-16T03:01:33.919Z,99.90
2022-09-16T03:04:00.698Z,99.90
2022-09-16T03:06:28.876Z,99.90
2022-09-16T03:08:58.146Z,99.90
2022-09-16T03:11:40.205Z,99.90
2022-09-16T03:14:44.264Z,99.90
2022-09-16T03:17:51.794Z,99.90
2022-09-16T03:20:40.571Z,99.90
2022-09-16T03:23:35.417Z,99.90
2022-09-16T03:26:11.374Z,99.90
2022-09-16T03:28:46.544Z,99.90
2022-09-16T03:31:26.443Z,99.90
2022-09-16T03:34:05.052Z,99.90
2022-09-16T03:36:34.334Z,99.90
2022-09-16T03:39:01.407Z,99.90
2022-09-16T03:41:29.244Z,99.90
2022-09-16T03:44:00.299Z,99.90
2022-09-16T03:46:30.293Z,99.90
2022-09-16T03:48:57.087Z,99.90
2022-09-16T03:51:24.226Z,99.90
2022-09-16T03:53:53.940Z,99.90
2022-09-16T03:56:20.548Z,99.90
2022-09-16T03:58:50.483Z,99.90
2022-09-16T04:01:17.140Z,99.90
2022-09-16T04:03:43.805Z,99.90
2022-09-16T04:06:10.387Z,99.90
2022-09-16T04:08:37.577Z,99.90
2022-09-16T04:11:07.980Z,99.90
2022-09-16T04:13:35.101Z,99.90
2022-09-16T04:16:04.671Z,99.90
2022-09-16T04:18:31.849Z,99.90
2022-09-16T04:20:59.070Z,99.90
2022-09-16T04:23:26.553Z,99.90
2022-09-16T04:25:57.230Z,99.90
2022-09-16T04:28:23.894Z,99.90
2022-09-16T04:30:50.710Z,99.90
2022-09-16T04:33:17.416Z,99.90
2022-09-16T04:35:44.003Z,99.90
2022-09-16T04:38:10.550Z,99.90
2022-09-16T04:40:39.589Z,99.90
2022-09-16T04:43:06.261Z,99.90
2022-09-16T04:45:32.866Z,99.90
2022-09-16T04:47:59.556Z,99.90
2022-09-16T04:50:26.213Z,99.90
2022-09-16T04:52:52.841Z,99.90
2022-09-16T04:55:22.879Z,99.90
2022-09-16T04:57:50.305Z,99.90
2022-09-16T05:00:16.984Z,99.90
2022-09-16T05:02:46.723Z,99.90
2022-09-16T05:05:13.422Z,99.90
2022-09-16T05:07:40.053Z,99.90
2022-09-16T05:10:07.026Z,99.90
2022-09-16T05:12:33.637Z,99.90
2022-09-16T05:15:00.234Z,99.90
2022-09-16T05:17:49.755Z,99.90
2022-09-16T05:20:15.741Z,99.90
2022-09-16T05:22:42.377Z,99.90
2022-09-16T05:25:09.317Z,99.90
2022-09-16T05:27:36.069Z,99.90
2022-09-16T05:30:02.697Z,99.90
2022-09-16T05:32:29.311Z,99.90
2022-09-16T05:34:56.174Z,99.90
2022-09-16T05:37:22.760Z,99.90
2022-09-16T05:39:49.371Z,99.90
2022-09-16T05:42:15.988Z,99.90
2022-09-16T05:44:42.546Z,99.90
2022-09-16T05:47:09.252Z,99.90
2022-09-16T05:49:37.065Z,99.90
2022-09-16T05:52:03.694Z,99.90
2022-09-16T05:54:31.357Z,99.90
2022-09-16T05:56:57.914Z,99.90
2022-09-16T05:59:24.543Z,99.90
2022-09-16T06:01:51.221Z,99.90
2022-09-16T06:04:17.889Z,99.90
2022-09-16T06:06:45.686Z,99.90
2022-09-16T06:09:17.940Z,99.90
2022-09-16T06:11:46.066Z,99.90
2022-09-16T06:14:13.119Z,99.90
2022-09-16T06:16:39.717Z,99.90
2022-09-16T06:19:12.930Z,99.90
2022-09-16T06:21:39.741Z,99.90
2022-09-16T06:24:10.001Z,99.90
2022-09-16T06:26:38.434Z,99.90
2022-09-16T06:29:06.143Z,99.90
2022-09-16T06:31:32.884Z,99.90
2022-09-16T06:33:59.483Z,99.90
2022-09-16T06:36:29.563Z,99.90
2022-09-16T06:38:56.235Z,99.90
2022-09-16T06:41:23.269Z,99.90
2022-09-16T06:43:51.742Z,99.90
2022-09-16T06:46:20.429Z,99.90
2022-09-16T06:48:48.301Z,99.90
2022-09-16T06:51:19.642Z,99.90
2022-09-16T06:53:46.731Z,99.90
2022-09-16T06:56:14.383Z,99.90
2022-09-16T06:58:42.298Z,99.90
2022-09-16T07:01:10.961Z,99.90
2022-09-16T07:03:41.441Z,99.90
2022-09-16T07:06:08.196Z,99.90
2022-09-16T07:08:35.596Z,99.90
2022-09-16T07:11:11.371Z,99.90
2022-09-16T07:13:38.084Z,99.90
2022-09-16T07:16:13.382Z,99.90
2022-09-16T07:18:40.915Z,99.90
2022-09-16T07:21:09.941Z,99.90
2022-09-16T07:23:37.037Z,99.90
2022-09-16T07:26:04.424Z,99.90
2022-09-16T07:28:31.339Z,99.90
2022-09-16T07:31:04.082Z,99.90
2022-09-16T07:33:32.137Z,99.90
2022-09-16T07:36:00.186Z,99.90
2022-09-16T07:38:27.343Z,99.90
2022-09-16T07:40:53.906Z,99.90
2022-09-16T07:43:20.604Z,99.90
2022-09-16T07:45:47.253Z,99.90
2022-09-16T07:48:13.875Z,99.90
2022-09-16T07:50:40.451Z,99.90
2022-09-16T07:53:07.041Z,99.90
2022-09-16T07:55:35.230Z,99.90
2022-09-16T07:58:01.851Z,99.90
2022-09-16T08:00:28.412Z,99.90
2022-09-16T08:02:57.347Z,99.90
2022-09-16T08:05:23.909Z,99.90
2022-09-16T08:07:50.490Z,99.90
2022-09-16T08:10:17.117Z,99.90
2022-09-16T08:12:47.145Z,99.90
2022-09-16T08:15:14.332Z,99.90
2022-09-16T08:17:40.951Z,99.90
2022-09-16T08:20:07.885Z,99.90
2022-09-16T08:22:34.682Z,99.90
2022-09-16T08:25:01.270Z,99.90
2022-09-16T08:27:27.884Z,99.90
2022-09-16T08:29:54.478Z,99.90
2022-09-16T08:32:21.085Z,99.90
2022-09-16T08:34:49.016Z,99.90
2022-09-16T08:37:15.698Z,99.90
2022-09-16T08:39:42.262Z,99.90
2022-09-16T08:42:27.258Z,99.90
2022-09-16T08:45:01.649Z,99.90
2022-09-16T08:47:54.884Z,99.90
2022-09-16T08:50:29.058Z,99.90
2022-09-16T08:52:57.637Z,99.90
2022-09-16T08:55:36.764Z,99.90
2022-09-16T08:58:20.697Z,99.90
2022-09-16T09:01:05.254Z,99.90
2022-09-16T09:03:38.355Z,99.90
2022-09-16T09:06:20.693Z,99.90
2022-09-16T09:08:58.368Z,99.90
2022-09-16T09:11:35.787Z,99.90
2022-09-16T09:14:06.968Z,99.90
2022-09-16T09:16:48.501Z,99.90
2022-09-16T09:19:55.428Z,99.90
2022-09-16T09:22:29.482Z,99.90
2022-09-16T09:25:14.902Z,99.90
2022-09-16T09:27:44.669Z,99.90
2022-09-16T09:30:26.024Z,99.90
2022-09-16T09:33:44.907Z,99.90
2022-09-16T09:36:32.183Z,99.90
2022-09-16T09:39:12.945Z,99.90
2022-09-16T09:41:48.841Z,99.90
2022-09-16T09:44:46.325Z,99.90
2022-09-16T09:47:20.063Z,99.90
2022-09-16T09:49:53.846Z,99.90
2022-09-16T09:52:22.302Z,99.90
2022-09-16T09:54:50.861Z,99.90
2022-09-16T09:57:34.634Z,99.90
2022-09-16T10:00:11.815Z,99.90
2022-09-16T10:02:40.103Z,99.90
2022-09-16T10:05:09.791Z,99.90
2022-09-16T10:07:37.176Z,99.90
2022-09-16T10:10:13.744Z,99.90
2022-09-16T10:12:40.412Z,99.90
2022-09-16T10:15:17.685Z,99.90
2022-09-16T10:17:48.944Z,99.90
2022-09-16T10:20:29.779Z,99.90
2022-09-16T10:23:02.318Z,99.90
2022-09-16T10:25:30.588Z,99.90
2022-09-16T10:28:00.101Z,99.90
2022-09-16T10:30:43.410Z,99.90
2022-09-16T10:33:15.502Z,99.90
2022-09-16T10:35:51.844Z,99.90
2022-09-16T10:38:19.276Z,99.90
2022-09-16T10:40:53.682Z,99.90
2022-09-16T10:43:20.285Z,99.90
2022-09-16T10:45:49.714Z,99.90
2022-09-16T10:48:18.669Z,99.90
2022-09-16T10:51:00.999Z,99.90
2022-09-16T10:53:37.636Z,99.90
2022-09-16T10:56:19.373Z,99.90
2022-09-16T10:58:45.967Z,99.90
2022-09-16T11:01:44.006Z,99.90
2022-09-16T11:04:39.047Z,99.90
2022-09-16T11:07:11.580Z,99.90
2022-09-16T11:09:50.110Z,99.90
2022-09-16T11:12:30.203Z,96.10
2022-09-16T11:15:06.857Z,96.10
2022-09-16T11:17:48.287Z,97.00
2022-09-16T11:20:48.993Z,99.90
2022-09-16T11:23:37.783Z,99.90
2022-09-16T11:26:12.016Z,99.90
2022-09-16T11:29:16.633Z,99.90
2022-09-16T11:32:17.941Z,99.90
2022-09-16T11:35:17.791Z,99.90
2022-09-16T11:38:05.845Z,99.90
2022-09-16T11:41:00.281Z,96.30
2022-09-16T11:43:48.720Z,95.40
2022-09-16T11:46:30.082Z,97.40
2022-09-16T11:49:14.853Z,98.80
2022-09-16T11:51:50.289Z,98.10
2022-09-16T11:54:46.009Z,99.90
2022-09-16T11:57:22.531Z,99.00
2022-09-16T11:59:53.537Z,99.90
2022-09-16T12:02:53.587Z,98.50
2022-09-16T12:05:35.197Z,99.10
2022-09-16T12:08:22.747Z,99.10
2022-09-16T12:11:00.596Z,96.60
2022-09-16T12:13:42.984Z,98.70
2022-09-16T12:16:12.815Z,99.90
2022-09-16T12:18:42.985Z,99.90
2022-09-16T12:21:28.401Z,99.90
2022-09-16T12:23:59.877Z,99.90
2022-09-16T12:26:33.639Z,99.90
2022-09-16T12:29:12.031Z,99.90
2022-09-16T12:32:14.465Z,99.90
2022-09-16T12:34:49.198Z,99.90
2022-09-16T12:37:41.236Z,99.90
2022-09-16T12:40:24.109Z,99.90
2022-09-16T12:43:05.786Z,99.90
2022-09-16T12:46:13.240Z,99.90
2022-09-16T12:49:02.018Z,99.40
2022-09-16T12:51:34.749Z,99.90
2022-09-16T12:54:04.402Z,99.90
2022-09-16T12:56:43.813Z,98.90
2022-09-16T12:59:35.301Z,97.90
2022-09-16T13:02:28.063Z,96.90
2022-09-16T13:04:57.049Z,96.60
2022-09-16T13:07:26.060Z,95.50
2022-09-16T13:10:04.085Z,96.00
2022-09-16T13:12:46.043Z,95.80
2022-09-16T13:15:24.038Z,97.50
2022-09-16T13:17:53.077Z,98.30
2022-09-16T13:20:48.065Z,97.80
2022-09-16T13:23:18.283Z,98.20
2022-09-16T13:25:55.540Z,98.40
2022-09-16T13:28:35.132Z,97.80
2022-09-16T13:31:14.279Z,94.90
2022-09-16T13:33:43.517Z,94.50
2022-09-16T13:36:22.348Z,95.10
2022-09-16T13:38:50.836Z,94.50
2022-09-16T13:41:36.269Z,91.50
2022-09-16T13:44:24.086Z,87.40
2022-09-16T13:46:50.681Z,86.70
2022-09-16T13:49:27.679Z,91.10
2022-09-16T13:51:54.253Z,89.00
2022-09-16T13:54:25.855Z,90.40
2022-09-16T13:56:52.397Z,91.10
2022-09-16T13:59:27.848Z,91.80
2022-09-16T14:02:04.498Z,91.00
2022-09-16T14:04:57.405Z,91.00
2022-09-16T14:07:33.089Z,90.20
2022-09-16T14:10:20.836Z,90.30
2022-09-16T14:12:59.512Z,90.30
2022-09-16T14:15:26.339Z,88.00
2022-09-16T14:17:56.945Z,89.30
2022-09-16T14:20:23.815Z,86.70
2022-09-16T14:23:01.373Z,88.90
2022-09-16T14:25:36.100Z,90.40
2022-09-16T14:28:23.894Z,91.60
2022-09-16T14:31:00.940Z,91.30
2022-09-16T14:33:35.190Z,92.40
2022-09-16T14:36:07.755Z,93.60
2022-09-16T14:38:46.710Z,95.20
2022-09-16T14:41:19.692Z,99.90
2022-09-16T14:43:46.267Z,99.90
2022-09-16T14:46:12.899Z,99.90
2022-09-16T14:48:39.509Z,99.90
2022-09-16T14:51:23.504Z,99.90
2022-09-16T14:54:13.578Z,99.90
2022-09-16T14:56:40.459Z,99.90
2022-09-16T14:59:11.579Z,99.90
2022-09-16T15:01:38.178Z,99.90
2022-09-16T15:04:08.182Z,99.90
2022-09-16T15:06:39.115Z,99.90
2022-09-16T15:09:12.822Z,99.90
2022-09-16T15:11:48.418Z,99.90
2022-09-16T15:14:16.475Z,99.90
2022-09-16T15:16:46.970Z,99.90
2022-09-16T15:19:16.783Z,99.90
2022-09-16T15:21:43.538Z,99.90
2022-09-16T15:24:18.097Z,99.90
2022-09-16T15:26:45.853Z,99.90
2022-09-16T15:29:18.581Z,99.90
2022-09-16T15:31:45.554Z,99.90
2022-09-16T15:34:21.457Z,99.90
2022-09-16T15:36:49.581Z,99.90
2022-09-16T15:39:38.577Z,99.90
2022-09-16T15:42:12.198Z,99.90
2022-09-16T15:44:52.454Z,99.90
2022-09-16T15:47:26.362Z,99.90
2022-09-16T15:50:02.869Z,99.90
2022-09-16T15:52:32.853Z,99.90
2022-09-16T15:55:01.368Z,99.90
2022-09-16T15:57:29.912Z,99.90
2022-09-16T16:00:11.956Z,99.90
2022-09-16T16:02:53.814Z,99.90
2022-09-16T16:05:22.450Z,99.90
2022-09-16T16:07:51.201Z,99.90
2022-09-16T16:10:30.964Z,99.90
2022-09-16T16:12:59.562Z,99.90
2022-09-16T16:15:28.436Z,99.90
2022-09-16T16:17:57.796Z,99.90
2022-09-16T16:20:24.521Z,99.90
2022-09-16T16:22:51.407Z,99.90
2022-09-16T16:25:18.793Z,99.90
2022-09-16T16:27:45.479Z,99.90
2022-09-16T16:30:12.465Z,99.90
2022-09-16T16:32:39.898Z,99.90
2022-09-16T16:35:06.841Z,99.90
2022-09-16T16:37:45.847Z,99.90
2022-09-16T16:40:14.001Z,99.90
2022-09-16T16:42:42.984Z,99.90
2022-09-16T16:45:10.731Z,99.90
2022-09-16T16:47:37.309Z,99.90
2022-09-16T16:50:04.133Z,99.90
2022-09-16T16:52:30.720Z,99.90
2022-09-16T16:54:57.306Z,99.90
2022-09-16T16:57:23.902Z,99.90
2022-09-16T16:59:51.771Z,99.90
2022-09-16T17:02:18.361Z,99.90
2022-09-16T17:04:45.073Z,99.90
2022-09-16T17:07:28.076Z,99.90
2022-09-16T17:09:56.994Z,99.90
2022-09-16T17:12:23.612Z,99.90
2022-09-16T17:14:50.174Z,99.90
2022-09-16T17:17:16.749Z,99.90
2022-09-16T17:19:43.314Z,99.90
2022-09-16T17:22:09.862Z,99.90
2022-09-16T17:24:37.464Z,99.90
2022-09-16T17:27:04.379Z,99.90
2022-09-16T17:29:30.973Z,99.90
2022-09-16T17:32:00.539Z,99.90
2022-09-16T17:34:27.359Z,99.90
2022-09-16T17:36:54.520Z,99.90
2022-09-16T17:39:21.361Z,99.90
2022-09-16T17:41:48.740Z,99.90
2022-09-16T17:44:15.730Z,99.90
2022-09-16T17:46:42.919Z,99.90
2022-09-16T17:49:22.856Z,99.90
2022-09-16T17:51:50.206Z,99.90
2022-09-16T17:54:17.013Z,99.90
2022-09-16T17:56:43.895Z,99.90
2022-09-16T17:59:11.164Z,99.90
2022-09-16T18:01:37.905Z,99.90
2022-09-16T18:04:04.589Z,99.90
2022-09-16T18:06:35.382Z,99.90
2022-09-16T18:09:03.249Z,99.90
2022-09-16T18:11:29.808Z,99.90
2022-09-16T18:13:58.072Z,99.90
2022-09-16T18:16:24.921Z,99.90
2022-09-16T18:18:52.916Z,99.90
2022-09-16T18:21:19.808Z,99.90
2022-09-16T18:23:49.537Z,99.90
2022-09-16T18:26:16.205Z,99.90
2022-09-16T18:29:19.619Z,99.90
2022-09-16T18:31:30.562Z,99.90
2022-09-16T18:33:57.170Z,99.90
2022-09-16T18:36:25.449Z,99.90
2022-09-16T18:38:56.976Z,99.90
2022-09-16T18:41:25.451Z,99.90
2022-09-16T18:43:53.933Z,99.90
2022-09-16T18:46:26.310Z,99.90
2022-09-16T18:48:53.551Z,99.90
2022-09-16T18:51:22.865Z,99.90
2022-09-16T18:53:50.918Z,99.90
2022-09-16T18:56:19.370Z,99.90
2022-09-16T18:59:03.651Z,99.90
2022-09-16T19:01:37.056Z,99.90
2022-09-16T19:04:05.145Z,99.90
2022-09-16T19:06:33.202Z,99.90
2022-09-16T19:09:00.185Z,99.90
2022-09-16T19:11:27.519Z,99.90
2022-09-16T19:13:54.401Z,99.90
2022-09-16T19:16:21.624Z,99.90
2022-09-16T19:18:54.617Z,99.90
2022-09-16T19:21:21.890Z,99.90
2022-09-16T19:24:07.721Z,99.90
2022-09-16T19:26:35.762Z,99.90
2022-09-16T19:29:02.616Z,99.90
2022-09-16T19:31:29.293Z,99.90
2022-09-16T19:33:56.281Z,99.90
2022-09-16T19:36:25.439Z,99.90
2022-09-16T19:38:52.311Z,99.90
2022-09-16T19:41:21.962Z,99.90
2022-09-16T19:43:52.627Z,99.90
2022-09-16T19:46:19.288Z,99.90
2022-09-16T19:48:48.095Z,99.90
2022-09-16T19:51:16.254Z,99.90
2022-09-16T19:53:45.044Z,99.90
2022-09-16T19:56:13.151Z,99.90
2022-09-16T19:58:42.887Z,99.90
2022-09-16T20:01:14.957Z,99.90
2022-09-16T20:03:43.762Z,99.90
2022-09-16T20:06:15.560Z,99.90
2022-09-16T20:08:42.945Z,99.90
2022-09-16T20:11:11.926Z,99.90
2022-09-16T20:13:38.983Z,99.90
2022-09-16T20:16:07.518Z,99.90
2022-09-16T20:18:34.813Z,99.90
2022-09-16T20:21:06.061Z,99.90
2022-09-16T20:23:33.632Z,99.90
2022-09-16T20:26:01.372Z,99.90
2022-09-16T20:28:41.984Z,99.90
2022-09-16T20:31:09.348Z,99.90
2022-09-16T20:33:35.916Z,99.90
2022-09-16T20:36:09.897Z,99.90
2022-09-16T20:38:36.890Z,99.90
2022-09-16T20:41:07.770Z,99.90
2022-09-16T20:43:34.894Z,99.90
2022-09-16T20:46:09.117Z,99.90
2022-09-16T20:48:35.736Z,99.90
2022-09-16T20:51:12.977Z,99.90
2022-09-16T20:53:39.943Z,99.90
2022-09-16T20:56:16.176Z,99.90
2022-09-16T20:58:43.025Z,99.90
2022-09-16T21:01:17.567Z,99.90
2022-09-16T21:03:44.643Z,99.90
2022-09-16T21:06:13.414Z,99.90
2022-09-16T21:08:40.282Z,99.90
2022-09-16T21:11:11.539Z,99.90
2022-09-16T21:13:38.977Z,99.90
2022-09-16T21:16:05.840Z,99.90
2022-09-16T21:18:32.503Z,99.90
2022-09-16T21:21:16.600Z,99.90
2022-09-16T21:23:45.081Z,99.90
2022-09-16T21:26:19.200Z,99.90
2022-09-16T21:28:46.372Z,99.90
2022-09-16T21:31:14.316Z,99.90
2022-09-16T21:33:41.948Z,99.90
2022-09-16T21:36:11.550Z,99.90
2022-09-16T21:38:38.577Z,99.90
2022-09-16T21:41:27.076Z,99.90
2022-09-16T21:43:57.821Z,99.90
2022-09-16T21:46:29.202Z,99.90
2022-09-16T21:48:58.092Z,99.90
2022-09-16T21:51:24.932Z,99.90
2022-09-16T21:53:51.867Z,99.90
2022-09-16T21:56:20.525Z,99.90
2022-09-16T21:58:47.792Z,99.90
2022-09-16T22:01:19.111Z,99.90
2022-09-16T22:03:47.403Z,99.90
2022-09-16T22:06:15.114Z,99.90
2022-09-16T22:08:48.783Z,99.90
2022-09-16T22:11:17.206Z,99.90
2022-09-16T22:13:43.790Z,99.90
2022-09-16T22:16:14.932Z,99.90
2022-09-16T22:18:41.633Z,99.90
2022-09-16T22:21:09.766Z,99.90
2022-09-16T22:23:37.299Z,99.90
2022-09-16T22:26:07.466Z,99.90
2022-09-16T22:28:35.114Z,99.90
2022-09-16T22:31:15.694Z,99.90
2022-09-16T22:33:42.808Z,99.90
2022-09-16T22:36:11.302Z,99.90
2022-09-16T22:38:37.938Z,99.90
2022-09-16T22:41:08.676Z,99.90
2022-09-16T22:43:36.256Z,99.90
2022-09-16T22:46:07.359Z,99.90
2022-09-16T22:48:34.144Z,99.90
2022-09-16T22:51:01.061Z,99.90
2022-09-16T22:53:28.005Z,99.90
2022-09-16T22:55:59.072Z,99.90
2022-09-16T22:58:26.044Z,99.90
2022-09-16T23:00:53.028Z,99.90
2022-09-16T23:03:20.017Z,99.90
2022-09-16T23:05:56.843Z,99.90
2022-09-16T23:08:24.060Z,99.90
2022-09-16T23:10:51.589Z,99.90
2022-09-16T23:13:18.529Z,99.90
2022-09-16T23:15:45.625Z,99.90
2022-09-16T23:18:12.594Z,99.90
2022-09-16T23:20:39.158Z,99.90
2022-09-16T23:23:05.954Z,99.90
2022-09-16T23:25:34.177Z,99.90
2022-09-16T23:28:00.808Z,99.90
2022-09-16T23:30:28.054Z,99.90
2022-09-16T23:32:54.617Z,99.90
2022-09-16T23:35:21.829Z,99.90
2022-09-16T23:37:49.301Z,99.90
2022-09-16T23:40:16.265Z,99.90
2022-09-16T23:42:42.903Z,99.90
2022-09-16T23:45:09.682Z,99.90
2022-09-16T23:47:36.441Z,99.90
2022-09-16T23:50:03.070Z,99.90
2022-09-16T23:52:29.655Z,99.90
2022-09-16T23:54:56.204Z,99.90
2022-09-16T23:57:22.857Z,99.90
2022-09-16T23:59:49.725Z,99.90
